Time;durP1;ratioP1;P1;durP2;ratioP2;P2;SDS_P1;SDS_P2;PMS_P1;PMS_P2;Temp;Humidity;BMP_temperature;BMP_pressure;BME280_temperature;BME280_humidity;BME280_pressure;Samples;Min_cycle;Max_cycle;Signal;HPM_P1;HPM_P2
2024/02/27 00:00:29;;;;;;;20.42;12.20;;;11.50;99.90;;;;;;4996150;28;20033;-53
2024/02/27 00:02:54;;;;;;;22.50;13.68;;;11.50;99.90;;;;;;4995928;28;20030;-51
2024/02/27 00:05:20;;;;;;;26.98;14.32;;;11.40;99.90;;;;;;4945775;28;20043;-53
2024/02/27 00:07:46;;;;;;;26.63;16.02;;;11.30;99.90;;;;;;4995986;28;20038;-55
2024/02/27 00:10:14;;;;;;;22.58;14.70;;;11.40;99.90;;;;;;4995041;28;20034;-53
2024/02/27 00:12:40;;;;;;;26.02;15.52;;;11.30;99.90;;;;;;4995857;28;20048;-56
2024/02/27 00:15:07;;;;;;;22.42;15.20;;;11.30;99.90;;;;;;4995614;28;20042;-54
2024/02/27 00:17:33;;;;;;;22.45;13.70;;;11.20;99.90;;;;;;4914218;28;20043;-55
2024/02/27 00:19:59;;;;;;;23.08;13.98;;;11.30;99.90;;;;;;4995576;28;20470;-54
2024/02/27 00:22:24;;;;;;;22.02;11.98;;;11.20;99.90;;;;;;4995673;28;20034;-53
2024/02/27 00:24:50;;;;;;;23.02;13.63;;;11.20;99.90;;;;;;4995706;28;20062;-57
2024/02/27 00:27:16;;;;;;;17.85;12.63;;;11.30;99.90;;;;;;4995550;28;20026;-54
2024/02/27 00:29:42;;;;;;;21.77;14.10;;;;;;;;;;4995019;28;20030;-52
2024/02/27 00:32:08;;;;;;;19.17;12.60;;;;;;;;;;4995331;28;20030;-53
2024/02/27 00:34:35;;;;;;;22.38;13.90;;;;;;;;;;4995460;28;20054;-53
2024/02/27 00:37:01;;;;;;;19.92;13.60;;;11.20;99.90;;;;;;4995610;28;20118;-51
2024/02/27 00:39:27;;;;;;;20.08;12.63;;;11.40;99.90;;;;;;4945337;28;20121;-54
2024/02/27 00:41:56;;;;;;;19.73;13.15;;;11.30;99.90;;;;;;4995308;28;20031;-50
2024/02/27 00:44:23;;;;;;;23.48;13.45;;;;;;;;;;4962437;28;20038;-50
2024/02/27 00:46:49;;;;;;;23.70;13.35;;;;;;;;;;4995144;28;20379;-53
2024/02/27 00:49:15;;;;;;;22.67;13.23;;;;;;;;;;4961168;28;20042;-56
2024/02/27 00:51:41;;;;;;;19.52;11.30;;;;;;;;;;4994811;28;20482;-53
2024/02/27 00:54:07;;;;;;;18.10;10.50;;;11.20;99.90;;;;;;4960754;28;20446;-51
2024/02/27 00:56:32;;;;;;;20.02;10.75;;;11.10;99.90;;;;;;4994987;28;20033;-51
2024/02/27 00:58:58;;;;;;;19.10;11.90;;;11.00;99.90;;;;;;4994984;28;20466;-49
2024/02/27 01:01:24;;;;;;;17.13;11.52;;;11.00;99.90;;;;;;4994809;28;20441;-52
2024/02/27 01:03:50;;;;;;;18.92;11.20;;;;;;;;;;4994697;28;20471;-53
2024/02/27 01:06:16;;;;;;;19.92;11.73;;;10.80;99.90;;;;;;4994830;28;20026;-52
2024/02/27 01:08:42;;;;;;;17.00;10.50;;;10.70;99.90;;;;;;4994618;28;20405;-50
2024/02/27 01:11:07;;;;;;;18.80;11.27;;;10.70;99.90;;;;;;4994668;28;20669;-52
2024/02/27 01:13:33;;;;;;;20.13;12.73;;;10.70;99.90;;;;;;4994465;28;20030;-50
2024/02/27 01:15:59;;;;;;;20.00;9.70;;;10.70;99.90;;;;;;4994772;28;20386;-51
2024/02/27 01:18:24;;;;;;;20.17;12.10;;;10.70;99.90;;;;;;4960790;28;20104;-54
2024/02/27 01:20:50;;;;;;;18.98;11.18;;;10.70;99.90;;;;;;4994923;28;20061;-52
2024/02/27 01:23:16;;;;;;;16.35;11.70;;;10.80;99.90;;;;;;4994534;28;20033;-54
2024/02/27 01:25:41;;;;;;;20.95;11.68;;;10.80;99.90;;;;;;4960524;28;20085;-53
2024/02/27 01:28:07;;;;;;;14.07;9.65;;;10.80;99.90;;;;;;4960480;28;20045;-51
2024/02/27 01:30:33;;;;;;;23.40;12.68;;;10.60;99.90;;;;;;4994382;28;20046;-51
2024/02/27 01:32:59;;;;;;;23.55;11.20;;;;;;;;;;4994367;28;20026;-55
2024/02/27 01:35:25;;;;;;;17.67;11.75;;;;;;;;;;4960367;28;20046;-54
2024/02/27 01:37:51;;;;;;;20.05;12.05;;;10.50;99.90;;;;;;4994454;28;20034;-52
2024/02/27 01:40:17;;;;;;;19.23;11.68;;;10.70;99.90;;;;;;4994371;28;20110;-51
2024/02/27 01:42:44;;;;;;;19.45;11.95;;;10.50;99.90;;;;;;4993776;28;20030;-51
2024/02/27 01:45:21;;;;;;;18.35;10.60;;;10.50;99.90;;;;;;4994362;28;20446;-51
2024/02/27 01:47:49;;;;;;;17.30;11.45;;;10.40;99.90;;;;;;4993967;28;20511;-55
2024/02/27 01:50:17;;;;;;;19.10;12.52;;;10.30;99.90;;;;;;4959926;28;20042;-53
2024/02/27 01:52:44;;;;;;;19.52;12.35;;;10.40;99.90;;;;;;4994372;28;20034;-51
2024/02/27 01:55:10;;;;;;;20.65;13.27;;;10.50;99.90;;;;;;4993829;28;20415;-54
2024/02/27 01:57:36;;;;;;;21.00;13.25;;;;;;;;;;4994380;28;20034;-55
2024/02/27 02:00:09;;;;;;;18.98;12.85;;;;;;;;;;4994283;28;20030;-50
2024/02/27 02:02:37;;;;;;;18.05;11.88;;;10.60;99.90;;;;;;4946656;28;20117;-53
2024/02/27 02:05:04;;;;;;;17.67;12.43;;;10.80;99.90;;;;;;4993903;28;20648;-52
2024/02/27 02:07:32;;;;;;;17.25;11.48;;;10.70;99.90;;;;;;4994049;28;20026;-52
2024/02/27 02:09:58;;;;;;;17.70;10.93;;;;;;;;;;4993942;28;20433;-52
2024/02/27 02:12:25;;;;;;;16.80;11.45;;;10.50;99.90;;;;;;4978908;28;20038;-53
2024/02/27 02:14:52;;;;;;;14.75;9.98;;;10.50;99.90;;;;;;4974592;28;20039;-49
2024/02/27 02:17:18;;;;;;;16.42;11.80;;;10.40;99.90;;;;;;4956762;28;20498;-53
2024/02/27 02:19:43;;;;;;;17.52;11.57;;;10.40;99.90;;;;;;4974456;28;20154;-50
2024/02/27 02:22:09;;;;;;;23.55;11.73;;;10.40;99.90;;;;;;4974459;28;20162;-52
2024/02/27 02:24:37;;;;;;;18.83;12.38;;;10.40;99.90;;;;;;4974527;28;20467;-53
2024/02/27 02:27:03;;;;;;;18.48;11.77;;;10.30;99.90;;;;;;4956520;28;20034;-52
2024/02/27 02:29:29;;;;;;;16.75;10.80;;;10.30;99.90;;;;;;4940405;28;20494;-50
2024/02/27 02:31:55;;;;;;;16.08;9.90;;;10.40;99.90;;;;;;4974638;28;20112;-50
2024/02/27 02:34:20;;;;;;;18.02;11.25;;;10.30;99.90;;;;;;4974542;28;20509;-50
2024/02/27 02:36:47;;;;;;;17.17;10.80;;;10.20;99.90;;;;;;4925409;28;20121;-54
2024/02/27 02:39:12;;;;;;;23.63;12.10;;;10.10;99.90;;;;;;4941218;28;20027;-57
2024/02/27 02:41:38;;;;;;;20.25;11.00;;;10.90;99.90;;;;;;4957310;28;20054;-50
2024/02/27 02:44:05;;;;;;;19.80;11.95;;;10.00;99.90;;;;;;4974804;28;20034;-54
2024/02/27 02:46:31;;;;;;;18.02;11.85;;;9.80;99.90;;;;;;4957493;28;20488;-55
2024/02/27 02:49:00;;;;;;;17.38;11.27;;;9.80;99.90;;;;;;4974710;28;20031;-54
2024/02/27 02:51:27;;;;;;;19.10;11.65;;;;;;;;;;4975634;28;20438;-49
2024/02/27 02:53:52;;;;;;;20.17;11.85;;;9.70;99.90;;;;;;4977850;28;20031;-55
2024/02/27 02:56:18;;;;;;;18.70;11.20;;;9.60;99.90;;;;;;4998470;28;20085;-50
2024/02/27 02:58:44;;;;;;;17.55;11.48;;;;;;;;;;4947269;28;20105;-53
2024/02/27 03:01:10;;;;;;;16.35;10.63;;;9.40;99.90;;;;;;4997177;28;20552;-49
2024/02/27 03:03:36;;;;;;;17.75;11.85;;;9.40;99.90;;;;;;4997144;28;20031;-53
2024/02/27 03:06:02;;;;;;;17.83;12.05;;;9.40;99.90;;;;;;4997110;28;20049;-52
2024/02/27 03:08:27;;;;;;;21.13;13.18;;;9.50;99.90;;;;;;4947298;28;20391;-52
2024/02/27 03:10:54;;;;;;;22.52;12.55;;;;;;;;;;4997266;28;20109;-52
2024/02/27 03:13:19;;;;;;;18.75;11.80;;;9.70;99.90;;;;;;4997201;28;20034;-52
2024/02/27 03:15:45;;;;;;;18.70;11.32;;;9.70;99.90;;;;;;4978696;28;20625;-53
2024/02/27 03:18:11;;;;;;;19.92;11.80;;;9.70;99.90;;;;;;4996700;28;20390;-51
2024/02/27 03:20:36;;;;;;;20.98;11.73;;;9.70;99.90;;;;;;4947088;28;20169;-51
2024/02/27 03:23:02;;;;;;;18.73;11.15;;;9.70;99.90;;;;;;4996770;28;20030;-51
2024/02/27 03:25:28;;;;;;;16.42;10.88;;;9.70;99.90;;;;;;4996775;28;20022;-51
2024/02/27 03:27:54;;;;;;;19.38;11.25;;;9.70;99.90;;;;;;4996799;28;20026;-52
2024/02/27 03:30:19;;;;;;;15.88;10.48;;;9.70;99.90;;;;;;4996423;28;20041;-50
2024/02/27 03:32:45;;;;;;;17.15;11.20;;;9.70;99.90;;;;;;4996670;28;20105;-52
2024/02/27 03:35:11;;;;;;;18.88;10.68;;;9.70;99.90;;;;;;4996357;28;20046;-51
2024/02/27 03:37:37;;;;;;;20.40;11.27;;;9.80;99.90;;;;;;4996466;28;20027;-53
2024/02/27 03:40:05;;;;;;;20.38;11.65;;;9.80;99.90;;;;;;4996555;28;20033;-52
2024/02/27 03:42:32;;;;;;;18.50;10.13;;;9.90;99.90;;;;;;4962569;28;20402;-53
2024/02/27 03:44:58;;;;;;;14.75;9.95;;;;;;;;;;4996300;28;20038;-52
2024/02/27 03:47:24;;;;;;;17.65;11.35;;;;;;;;;;4995602;28;20061;-52
2024/02/27 03:49:50;;;;;;;15.30;10.55;;;10.20;99.90;;;;;;4995946;28;20034;-52
2024/02/27 03:52:16;;;;;;;15.70;10.73;;;10.10;99.90;;;;;;4995208;28;20031;-52
2024/02/27 03:54:42;;;;;;;18.58;11.23;;;9.90;99.90;;;;;;4995776;28;20069;-54
2024/02/27 03:57:09;;;;;;;19.58;10.82;;;9.90;99.90;;;;;;4996231;28;20030;-52
2024/02/27 03:59:35;;;;;;;16.75;10.50;;;9.80;99.90;;;;;;4993312;28;20038;-51
2024/02/27 04:02:01;;;;;;;15.82;10.40;;;9.70;99.90;;;;;;4962086;28;20455;-50
2024/02/27 04:04:27;;;;;;;17.92;10.88;;;9.50;99.90;;;;;;4991498;28;20034;-52
2024/02/27 04:06:53;;;;;;;15.65;9.77;;;9.40;99.90;;;;;;4992098;28;20033;-53
2024/02/27 04:09:19;;;;;;;17.23;10.45;;;9.40;99.90;;;;;;4994827;28;20030;-49
2024/02/27 04:11:45;;;;;;;18.00;11.13;;;9.30;99.90;;;;;;4913257;28;20038;-55
2024/02/27 04:14:11;;;;;;;17.17;10.93;;;9.30;99.90;;;;;;4994689;28;20034;-54
2024/02/27 04:16:39;;;;;;;14.00;10.75;;;9.50;99.90;;;;;;4960221;28;20031;-52
2024/02/27 04:19:06;;;;;;;16.60;10.68;;;9.60;99.90;;;;;;4994963;28;20037;-55
2024/02/27 04:21:31;;;;;;;12.98;9.57;;;9.60;99.90;;;;;;4995038;28;20105;-52
2024/02/27 04:23:57;;;;;;;15.57;10.90;;;9.60;99.90;;;;;;4995246;28;20105;-54
2024/02/27 04:26:23;;;;;;;16.02;10.38;;;9.60;99.90;;;;;;4995570;28;20022;-50
2024/02/27 04:28:49;;;;;;;18.55;10.45;;;9.60;99.90;;;;;;4944964;28;20403;-59
2024/02/27 04:31:14;;;;;;;15.23;10.50;;;9.50;99.90;;;;;;4995738;28;20037;-57
2024/02/27 04:33:41;;;;;;;15.05;9.48;;;9.50;99.90;;;;;;4995134;28;20117;-53
2024/02/27 04:36:10;;;;;;;15.65;9.90;;;;;;;;;;4995285;28;20447;-49
2024/02/27 04:38:36;;;;;;;16.92;10.65;;;;;;;;;;4995380;28;20030;-54
2024/02/27 04:41:03;;;;;;;17.95;10.70;;;;;;;;;;4995130;28;20082;-54
2024/02/27 04:43:29;;;;;;;14.43;10.45;;;;;;;;;;4994866;28;20030;-54
2024/02/27 04:45:55;;;;;;;16.75;10.63;;;;;;;;;;4945562;28;20045;-55
2024/02/27 04:48:21;;;;;;;19.55;12.13;;;;;;;;;;4994953;28;20041;-52
2024/02/27 04:50:47;;;;;;;20.65;11.50;;;9.90;99.90;;;;;;4936069;28;20045;-52
2024/02/27 04:53:12;;;;;;;17.48;11.55;;;10.00;99.90;;;;;;4941928;28;20387;-53
2024/02/27 04:55:38;;;;;;;17.75;11.85;;;9.90;99.90;;;;;;4975564;28;20134;-52
2024/02/27 04:58:04;;;;;;;17.95;12.90;;;10.00;99.90;;;;;;4976122;28;20030;-56
2024/02/27 05:00:30;;;;;;;19.75;13.20;;;;;;;;;;4941766;28;20114;-52
2024/02/27 05:02:57;;;;;;;20.13;13.25;;;;;;;;;;4989588;28;20065;-54
2024/02/27 05:05:23;;;;;;;22.95;13.02;;;;;;;;;;4994725;28;20033;-56
2024/02/27 05:07:49;;;;;;;46.58;25.58;;;;;;;;;;4993601;28;20061;-54
2024/02/27 05:10:15;;;;;;;45.42;29.48;;;;;;;;;;4992880;28;20062;-56
2024/02/27 05:12:41;;;;;;;33.47;19.45;;;;;;;;;;4944995;28;20046;-55
2024/02/27 05:15:08;;;;;;;20.05;12.80;;;;;;;;;;4994565;28;20081;-52
2024/02/27 05:17:34;;;;;;;20.13;10.50;;;;;;;;;;4994092;28;20027;-58
2024/02/27 05:20:00;;;;;;;21.13;13.20;;;;;;;;;;4994524;28;20030;-55
2024/02/27 05:22:26;;;;;;;24.05;13.00;;;;;;;;;;4994599;28;20084;-56
2024/02/27 05:24:52;;;;;;;17.85;11.77;;;;;;;;;;4994502;28;20034;-54
2024/02/27 05:27:19;;;;;;;19.85;12.38;;;;;;;;;;4994554;28;20109;-55
2024/02/27 05:29:45;;;;;;;18.27;11.82;;;;;;;;;;4994384;28;20101;-53
2024/02/27 05:32:11;;;;;;;20.45;11.85;;;9.90;99.90;;;;;;4976396;28;20038;-52
2024/02/27 05:34:37;;;;;;;18.42;11.55;;;9.90;99.90;;;;;;4994414;28;20545;-53
2024/02/27 05:37:03;;;;;;;20.00;12.35;;;9.90;99.90;;;;;;4994287;28;20031;-51
2024/02/27 05:39:28;;;;;;;14.10;9.65;;;10.00;99.90;;;;;;4944521;28;20088;-52
2024/02/27 05:41:54;;;;;;;18.23;11.25;;;;;;;;;;4994425;28;20030;-52
2024/02/27 05:44:21;;;;;;;12.88;8.95;;;;;;;;;;4944618;28;20026;-52
2024/02/27 05:46:47;;;;;;;15.65;10.82;;;;;;;;;;4994187;28;20037;-56
2024/02/27 05:49:13;;;;;;;18.33;11.40;;;;;;;;;;4944149;28;20045;-54
2024/02/27 05:51:40;;;;;;;15.98;11.05;;;;;;;;;;4944139;28;20038;-52
2024/02/27 05:54:06;;;;;;;16.13;10.77;;;10.10;99.90;;;;;;4912542;28;20046;-52
2024/02/27 05:56:32;;;;;;;16.60;10.80;;;10.10;99.90;;;;;;4993992;28;20038;-54
2024/02/27 05:58:57;;;;;;;17.30;11.23;;;10.20;99.90;;;;;;4994130;28;20034;-50
2024/02/27 06:01:24;;;;;;;18.33;10.60;;;;;;;;;;4993959;28;20034;-52
2024/02/27 06:03:49;;;;;;;18.92;8.75;;;11.10;99.90;;;;;;4976124;28;20605;-54
2024/02/27 06:06:15;;;;;;;14.70;7.38;;;11.30;99.90;;;;;;4993978;28;20033;-49
2024/02/27 06:08:41;;;;;;;18.95;9.88;;;11.40;99.90;;;;;;4994065;28;20026;-54
2024/02/27 06:11:06;;;;;;;13.13;8.93;;;11.60;99.90;;;;;;4993942;28;20030;-55
2024/02/27 06:13:33;;;;;;;14.25;10.68;;;;;;;;;;4994147;28;20029;-52
2024/02/27 06:15:58;;;;;;;14.45;11.05;;;12.20;99.90;;;;;;4993765;28;20041;-51
2024/02/27 06:18:24;;;;;;;16.83;11.38;;;;;;;;;;4959787;28;20042;-55
2024/02/27 06:23:35;;;;;;;15.40;9.48;;;;;;;;;;4994147;28;20073;-53
2024/02/27 06:26:01;;;;;;;20.33;11.45;;;13.50;99.90;;;;;;4992970;28;20154;-53
2024/02/27 06:28:26;;;;;;;16.30;9.50;;;13.70;99.90;;;;;;4994311;28;20498;-52
2024/02/27 06:30:52;;;;;;;14.55;9.68;;;13.40;99.90;;;;;;4997550;28;20034;-53
2024/02/27 06:33:18;;;;;;;15.35;9.65;;;13.30;99.90;;;;;;4997728;28;20037;-52
2024/02/27 06:35:44;;;;;;;16.10;10.05;;;13.50;99.90;;;;;;4997558;28;20034;-51
2024/02/27 06:38:09;;;;;;;15.63;7.80;;;13.70;99.90;;;;;;4943465;28;20395;-53
2024/02/27 06:40:35;;;;;;;15.02;8.77;;;13.70;99.90;;;;;;4997440;28;20041;-53
2024/02/27 06:43:01;;;;;;;9.50;7.65;;;;;;;;;;4947401;28;20040;-52
2024/02/27 06:45:27;;;;;;;17.20;10.02;;;14.20;99.90;;;;;;4997541;28;20036;-57
2024/02/27 06:47:53;;;;;;;13.00;8.13;;;;;;;;;;4947485;28;20034;-50
2024/02/27 06:50:19;;;;;;;13.15;7.97;;;14.40;99.90;;;;;;4947556;28;20093;-54
2024/02/27 06:52:44;;;;;;;10.02;6.18;;;14.50;99.90;;;;;;4997364;28;20387;-54
2024/02/27 06:55:10;;;;;;;11.05;7.00;;;14.70;99.90;;;;;;4997165;28;20054;-57
2024/02/27 06:57:36;;;;;;;17.63;9.40;;;14.60;99.90;;;;;;4997464;28;20062;-57
2024/02/27 07:00:04;;;;;;;10.93;6.82;;;15.40;99.50;;;;;;4997489;28;20023;-54
2024/02/27 07:02:30;;;;;;;13.48;8.35;;;15.20;99.00;;;;;;4997160;28;20034;-55
2024/02/27 07:04:56;;;;;;;20.75;7.00;;;15.20;99.30;;;;;;4997204;28;20027;-57
2024/02/27 07:07:22;;;;;;;12.75;9.10;;;15.50;99.90;;;;;;4963349;28;20034;-57
2024/02/27 07:09:47;;;;;;;18.15;9.65;;;15.90;99.90;;;;;;4997195;28;20395;-55
2024/02/27 07:12:13;;;;;;;12.45;8.35;;;;;;;;;;4997316;28;20042;-53
2024/02/27 07:14:41;;;;;;;12.88;7.10;;;;;;;;;;4996784;28;20042;-55
2024/02/27 07:17:07;;;;;;;14.18;9.32;;;;;;;;;;4997003;28;20026;-56
2024/02/27 07:19:33;;;;;;;12.77;6.82;;;17.30;94.10;;;;;;4997051;28;20062;-57
2024/02/27 07:21:59;;;;;;;11.45;7.55;;;;;;;;;;4946935;28;20069;-54
2024/02/27 07:24:24;;;;;;;13.38;8.15;;;17.10;94.20;;;;;;4962494;28;20048;-52
2024/02/27 07:26:50;;;;;;;10.20;7.13;;;16.00;95.60;;;;;;4995961;28;20030;-55
2024/02/27 07:29:16;;;;;;;14.68;9.45;;;15.70;95.70;;;;;;4996577;28;20498;-51
2024/02/27 07:31:44;;;;;;;12.50;8.93;;;;;;;;;;4946681;28;20034;-52
2024/02/27 07:34:12;;;;;;;12.85;7.47;;;15.60;95.90;;;;;;4996536;28;20041;-51
2024/02/27 07:36:37;;;;;;;13.35;7.20;;;15.70;96.30;;;;;;4996076;28;20044;-56
2024/02/27 07:39:03;;;;;;;14.40;9.20;;;15.50;96.60;;;;;;4977986;28;20121;-55
2024/02/27 07:41:29;;;;;;;14.02;8.20;;;15.70;96.70;;;;;;4996498;28;20026;-57
2024/02/27 07:43:55;;;;;;;10.10;7.05;;;15.40;96.70;;;;;;4962386;28;20133;-55
2024/02/27 07:46:20;;;;;;;11.88;8.50;;;15.30;96.90;;;;;;4996303;28;20081;-53
2024/02/27 07:48:46;;;;;;;6.30;4.63;;;15.20;97.50;;;;;;4996263;28;20483;-56
2024/02/27 07:51:32;;;;;;;13.63;8.95;;;15.20;97.00;;;;;;4930068;28;20034;-57
2024/02/27 07:53:58;;;;;;;15.07;8.35;;;15.40;97.20;;;;;;4996109;28;20073;-53
2024/02/27 07:56:26;;;;;;;14.15;8.38;;;15.40;97.30;;;;;;4996278;28;20101;-55
2024/02/27 07:58:52;;;;;;;12.98;8.90;;;15.90;96.70;;;;;;4996064;28;20474;-54
2024/02/27 08:01:18;;;;;;;14.35;8.68;;;;;;;;;;4995976;28;20034;-59
2024/02/27 08:03:45;;;;;;;13.95;8.32;;;;;;;;;;4996185;28;20383;-56
2024/02/27 08:06:11;;;;;;;11.68;7.95;;;;;;;;;;4995742;28;20014;-56
2024/02/27 08:08:37;;;;;;;12.63;7.22;;;;;;;;;;4995840;28;20042;-53
2024/02/27 08:11:03;;;;;;;14.68;7.50;;;;;;;;;;4995744;28;20033;-57
2024/02/27 08:13:32;;;;;;;11.98;6.97;;;;;;;;;;4995854;28;20026;-56
2024/02/27 08:15:59;;;;;;;11.85;6.20;;;;;;;;;;4995678;28;20038;-55
2024/02/27 08:18:25;;;;;;;11.82;7.50;;;;;;;;;;4995610;28;20398;-55
2024/02/27 08:20:51;;;;;;;9.70;6.72;;;;;;;;;;4995624;28;20034;-58
2024/02/27 08:23:18;;;;;;;11.13;6.70;;;;;;;;;;4995737;28;20023;-53
2024/02/27 08:25:44;;;;;;;9.75;5.95;;;;;;;;;;4995584;28;20029;-56
2024/02/27 08:28:10;;;;;;;13.00;6.00;;;16.40;99.90;;;;;;4995897;28;20030;-53
2024/02/27 08:30:36;;;;;;;9.93;6.50;;;16.30;94.60;;;;;;4995545;28;20031;-57
2024/02/27 08:33:03;;;;;;;10.77;6.45;;;16.30;94.90;;;;;;4977499;28;20478;-56
2024/02/27 08:35:29;;;;;;;12.20;6.57;;;15.90;95.20;;;;;;4995504;28;20042;-54
2024/02/27 08:37:56;;;;;;;8.93;5.55;;;15.90;96.00;;;;;;4994558;28;20033;-52
2024/02/27 08:40:22;;;;;;;11.30;6.32;;;15.90;95.40;;;;;;4995314;28;20034;-56
2024/02/27 08:42:47;;;;;;;8.07;6.22;;;15.80;95.80;;;;;;4945165;28;20451;-54
2024/02/27 08:45:13;;;;;;;11.98;6.57;;;15.70;95.60;;;;;;4994860;28;20081;-54
2024/02/27 08:47:39;;;;;;;10.73;6.90;;;15.80;96.00;;;;;;4995266;28;20062;-51
2024/02/27 08:50:06;;;;;;;14.95;7.40;;;15.80;96.80;;;;;;4994992;28;20030;-53
2024/02/27 08:52:32;;;;;;;15.32;8.15;;;16.10;96.50;;;;;;4994209;28;20435;-56
2024/02/27 08:54:58;;;;;;;13.73;8.80;;;16.00;96.30;;;;;;4941715;28;20097;-58
2024/02/27 08:57:24;;;;;;;11.38;6.25;;;16.10;96.20;;;;;;4957452;28;20046;-57
2024/02/27 08:59:49;;;;;;;11.50;7.18;;;16.00;96.10;;;;;;4975649;28;20545;-54
2024/02/27 09:02:16;;;;;;;13.98;8.63;;;16.10;96.50;;;;;;4975089;28;20597;-52
2024/02/27 09:04:42;;;;;;;17.33;11.75;;;16.30;96.60;;;;;;4974313;28;20495;-49
2024/02/27 09:07:10;;;;;;;9.65;6.90;;;16.50;96.00;;;;;;4974445;28;20018;-52
2024/02/27 09:09:36;;;;;;;12.02;6.47;;;16.60;95.40;;;;;;4974650;28;20038;-55
2024/02/27 09:12:05;;;;;;;12.25;4.85;;;16.50;95.20;;;;;;4974466;28;20483;-53
2024/02/27 09:14:31;;;;;;;13.55;7.03;;;16.40;95.00;;;;;;4921264;28;20491;-56
2024/02/27 09:16:57;;;;;;;9.63;6.65;;;16.60;94.80;;;;;;4974815;28;20451;-55
2024/02/27 09:19:25;;;;;;;15.02;7.93;;;17.10;95.10;;;;;;4975216;28;20035;-56
2024/02/27 09:21:52;;;;;;;9.20;6.85;;;;;;;;;;4974352;28;20038;-53
2024/02/27 09:24:18;;;;;;;11.13;5.78;;;;;;;;;;4974339;28;20067;-55
2024/02/27 09:26:44;;;;;;;12.40;6.88;;;;;;;;;;4975048;28;20031;-55
2024/02/27 09:29:10;;;;;;;8.82;5.80;;;;;;;;;;4974662;28;20030;-55
2024/02/27 09:31:36;;;;;;;9.20;5.93;;;17.80;92.70;;;;;;4953582;29;20047;-51
2024/02/27 09:34:02;;;;;;;10.75;5.47;;;18.00;92.80;;;;;;4953619;29;20119;-56
2024/02/27 09:36:28;;;;;;;11.10;5.50;;;18.20;92.70;;;;;;4953114;29;20058;-52
2024/02/27 09:38:54;;;;;;;11.98;7.25;;;18.10;92.50;;;;;;4921176;29;20035;-53
2024/02/27 09:41:30;;;;;;;10.45;6.10;;;18.20;92.70;;;;;;4952692;29;20419;-55
2024/02/27 09:43:55;;;;;;;11.13;4.40;;;18.40;92.60;;;;;;4953256;29;20031;-56
2024/02/27 09:46:23;;;;;;;9.52;4.68;;;18.50;92.30;;;;;;4953334;29;20091;-53
2024/02/27 09:48:51;;;;;;;10.48;5.80;;;18.30;92.10;;;;;;4953061;29;20055;-50
2024/02/27 09:51:18;;;;;;;12.68;5.45;;;;;;;;;;4953228;29;20071;-57
2024/02/27 09:53:46;;;;;;;9.52;5.18;;;18.80;91.60;;;;;;4952459;29;20046;-53
2024/02/27 09:56:15;;;;;;;11.73;5.63;;;;;;;;;;4902129;29;20479;-51
2024/02/27 09:58:43;;;;;;;8.07;5.30;;;;;;;;;;4934072;29;20472;-55
2024/02/27 10:01:12;;;;;;;12.40;5.90;;;19.00;99.90;;;;;;4933934;29;20038;-52
2024/02/27 10:03:41;;;;;;;9.18;4.63;;;19.00;91.10;;;;;;4971930;28;20039;-54
2024/02/27 10:06:09;;;;;;;10.45;5.68;;;;;;;;;;4974425;28;20035;-51
2024/02/27 10:08:36;;;;;;;14.95;5.63;;;;;;;;;;4974464;28;20027;-52
2024/02/27 10:11:02;;;;;;;9.45;4.95;;;20.40;94.90;;;;;;4974401;28;20394;-54
2024/02/27 10:13:28;;;;;;;15.55;5.90;;;;;;;;;;4974597;28;20035;-57
2024/02/27 10:15:54;;;;;;;9.45;4.22;;;;;;;;;;4974289;28;20039;-51
2024/02/27 10:18:20;;;;;;;14.68;6.28;;;;;;;;;;4940909;28;20063;-51
2024/02/27 10:20:46;;;;;;;11.10;5.43;;;;;;;;;;4974415;28;20027;-56
2024/02/27 10:23:14;;;;;;;7.25;4.82;;;21.10;87.80;;;;;;4973900;28;20364;-53
2024/02/27 10:25:40;;;;;;;10.98;5.63;;;20.90;88.40;;;;;;4974074;28;20042;-59
2024/02/27 10:28:07;;;;;;;9.45;5.88;;;;;;;;;;4933708;29;20035;-54
2024/02/27 10:30:35;;;;;;;8.43;5.90;;;;;;;;;;4933787;29;20035;-55
2024/02/27 10:33:02;;;;;;;9.82;5.63;;;21.70;85.80;;;;;;4933745;29;20036;-52
2024/02/27 10:35:28;;;;;;;8.70;5.60;;;;;;;;;;4933711;29;20138;-51
2024/02/27 10:37:54;;;;;;;8.82;4.85;;;;;;;;;;4933770;29;20036;-53
2024/02/27 10:40:21;;;;;;;10.63;5.18;;;;;;;;;;4917787;29;20078;-53
2024/02/27 10:42:47;;;;;;;9.50;5.63;;;;;;;;;;4917575;29;20040;-56
2024/02/27 10:45:14;;;;;;;7.97;4.93;;;;;;;;;;4932972;29;20481;-53
2024/02/27 10:47:42;;;;;;;7.68;4.45;;;;;;;;;;4933483;29;20035;-56
2024/02/27 10:50:08;;;;;;;12.20;5.32;;;;;;;;;;4933493;29;20036;-52
2024/02/27 10:52:35;;;;;;;14.55;7.13;;;;;;;;;;4933652;29;20159;-55
2024/02/27 10:55:02;;;;;;;9.15;4.80;;;22.00;83.70;;;;;;4908515;29;20055;-53
2024/02/27 10:57:28;;;;;;;9.82;5.13;;;21.60;84.90;;;;;;4933551;29;20031;-53
2024/02/27 10:59:54;;;;;;;10.77;5.30;;;21.70;85.00;;;;;;4966995;28;20039;-55
2024/02/27 11:02:21;;;;;;;4.22;3.13;;;;;;;;;;4973541;28;20030;-53
2024/02/27 11:04:50;;;;;;;11.27;5.60;;;20.90;99.40;;;;;;4954709;28;20039;-55
2024/02/27 11:07:17;;;;;;;13.48;6.35;;;20.80;90.00;;;;;;4972919;28;20058;-52
2024/02/27 11:09:44;;;;;;;8.02;4.40;;;20.50;86.70;;;;;;4972841;28;20551;-52
2024/02/27 11:12:17;;;;;;;12.13;6.88;;;20.10;86.70;;;;;;4972810;28;20388;-54
2024/02/27 11:14:48;;;;;;;12.15;4.38;;;20.20;87.30;;;;;;4939682;28;20046;-53
2024/02/27 11:17:22;;;;;;;9.20;3.88;;;20.10;86.70;;;;;;4976066;28;20152;-56
2024/02/27 11:19:50;;;;;;;8.48;4.55;;;20.10;87.20;;;;;;4976053;28;20042;-57
2024/02/27 11:22:18;;;;;;;9.43;5.57;;;20.20;88.20;;;;;;4941890;28;20169;-51
2024/02/27 11:24:46;;;;;;;7.05;3.63;;;20.50;87.70;;;;;;4976105;28;20042;-53
2024/02/27 11:27:14;;;;;;;13.18;4.68;;;20.30;86.70;;;;;;4975222;28;20030;-52
2024/02/27 11:29:41;;;;;;;10.80;6.25;;;20.40;87.10;;;;;;4915677;29;20075;-56
2024/02/27 11:32:08;;;;;;;11.05;5.35;;;20.50;87.00;;;;;;4916084;29;20087;-53
2024/02/27 11:34:34;;;;;;;16.35;5.82;;;21.10;87.70;;;;;;4884527;29;20055;-56
2024/02/27 11:37:21;;;;;;;10.52;5.57;;;20.80;86.40;;;;;;4884872;29;20039;-58
2024/02/27 11:39:48;;;;;;;10.68;5.97;;;20.80;86.20;;;;;;4915494;29;20040;-56
2024/02/27 11:42:32;;;;;;;8.35;4.90;;;20.90;87.70;;;;;;4916198;29;20539;-51
2024/02/27 11:45:10;;;;;;;10.65;5.75;;;21.10;86.50;;;;;;4916029;29;20040;-52
2024/02/27 11:47:41;;;;;;;12.60;5.95;;;21.30;86.30;;;;;;4915701;29;20056;-54
2024/02/27 11:50:39;;;;;;;10.77;5.15;;;21.20;85.50;;;;;;4883538;29;20092;-50
2024/02/27 11:53:17;;;;;;;13.90;5.82;;;20.80;85.30;;;;;;4897107;29;20079;-52
2024/02/27 11:55:44;;;;;;;11.70;5.55;;;20.70;85.70;;;;;;4911788;29;20135;-52
2024/02/27 11:58:11;;;;;;;12.48;4.60;;;;;;;;;;4900027;29;20127;-51
2024/02/27 12:00:37;;;;;;;6.15;3.67;;;;;;;;;;4929004;29;20122;-53
2024/02/27 12:03:05;;;;;;;10.70;5.07;;;19.80;85.20;;;;;;4947311;28;20051;-52
2024/02/27 12:05:31;;;;;;;10.80;4.93;;;20.30;86.90;;;;;;4921599;29;20039;-53
2024/02/27 12:08:01;;;;;;;11.43;5.53;;;20.00;86.20;;;;;;4961662;28;20027;-51
2024/02/27 12:10:27;;;;;;;7.05;4.60;;;20.10;87.20;;;;;;4974410;28;20034;-52
2024/02/27 12:12:53;;;;;;;11.60;5.05;;;20.10;87.10;;;;;;4974218;28;20031;-55
2024/02/27 12:15:19;;;;;;;11.75;5.30;;;20.10;87.30;;;;;;4974209;28;20451;-53
2024/02/27 12:17:45;;;;;;;10.45;4.53;;;20.10;87.50;;;;;;4942334;28;20471;-53
2024/02/27 12:20:13;;;;;;;9.82;4.88;;;;;;;;;;4942208;28;20031;-53
2024/02/27 12:22:46;;;;;;;11.18;5.50;;;20.20;99.90;;;;;;4954535;28;20175;-52
2024/02/27 12:25:15;;;;;;;12.85;4.85;;;20.10;99.90;;;;;;4976005;28;20042;-52
2024/02/27 12:27:42;;;;;;;12.50;6.22;;;19.90;86.90;;;;;;4976245;28;20431;-52
2024/02/27 12:30:11;;;;;;;9.68;5.03;;;20.00;88.00;;;;;;4976231;28;20084;-54
2024/02/27 12:32:39;;;;;;;11.63;4.55;;;20.20;88.40;;;;;;4908559;29;20114;-57
2024/02/27 12:35:06;;;;;;;8.80;4.40;;;20.30;86.90;;;;;;4956664;29;20051;-52
2024/02/27 12:37:44;;;;;;;9.80;3.50;;;20.50;86.30;;;;;;4956616;29;20027;-52
2024/02/27 12:40:12;;;;;;;4.63;3.10;;;20.50;85.20;;;;;;4923054;29;20039;-56
2024/02/27 12:42:42;;;;;;;9.00;3.88;;;20.40;85.10;;;;;;4956557;29;20468;-55
2024/02/27 12:45:12;;;;;;;8.52;4.03;;;20.50;85.10;;;;;;4956499;29;20380;-57
2024/02/27 12:47:39;;;;;;;11.18;4.43;;;20.70;85.20;;;;;;4939256;29;20391;-50
2024/02/27 12:50:07;;;;;;;10.27;3.85;;;21.20;85.80;;;;;;4956364;29;20027;-54
2024/02/27 12:52:34;;;;;;;6.55;3.85;;;21.40;85.20;;;;;;4938518;29;20071;-55
2024/02/27 12:55:00;;;;;;;9.20;4.18;;;21.20;84.10;;;;;;4965984;28;20054;-49
2024/02/27 12:57:27;;;;;;;9.52;5.32;;;21.10;84.30;;;;;;4957612;28;20055;-53
2024/02/27 12:59:54;;;;;;;11.63;7.35;;;20.80;84.30;;;;;;4992520;28;20110;-52
2024/02/27 13:02:20;;;;;;;19.95;14.63;;;21.00;85.00;;;;;;4976990;28;20046;-56
2024/02/27 13:04:46;;;;;;;13.70;6.28;;;21.10;84.80;;;;;;4994782;28;20095;-51